sensor_id;sensor_type;location;lat;lon;timestamp;temperature;humidity
53272;DHT22;39160;48.580;7.756;2023-08-31T00:03:03;19.10;99.90
53272;DHT22;39160;48.580;7.756;2023-08-31T00:07:54;19.00;99.90
53272;DHT22;39160;48.580;7.756;2023-08-31T00:12:45;19.00;99.90
53272;DHT22;39160;48.580;7.756;2023-08-31T00:17:36;19.00;99.90
53272;DHT22;39160;48.580;7.756;2023-08-31T00:22:28;19.10;99.90
53272;DHT22;39160;48.580;7.756;2023-08-31T00:27:19;19.10;99.90
53272;DHT22;39160;48.580;7.756;2023-08-31T00:32:14;19.00;99.90
53272;DHT22;39160;48.580;7.756;2023-08-31T00:37:05;19.00;99.90
53272;DHT22;39160;48.580;7.756;2023-08-31T00:41:56;19.00;99.90
53272;DHT22;39160;48.580;7.756;2023-08-31T00:46:46;19.00;99.90
53272;DHT22;39160;48.580;7.756;2023-08-31T00:51:37;18.90;99.90
53272;DHT22;39160;48.580;7.756;2023-08-31T00:56:28;18.80;99.90
53272;DHT22;39160;48.580;7.756;2023-08-31T01:01:36;18.80;99.90
53272;DHT22;39160;48.580;7.756;2023-08-31T01:06:49;18.80;99.90
53272;DHT22;39160;48.580;7.756;2023-08-31T01:16:48;18.70;99.90
53272;DHT22;39160;48.580;7.756;2023-08-31T01:21:42;18.60;99.90
53272;DHT22;39160;48.580;7.756;2023-08-31T01:26:36;18.50;99.90
53272;DHT22;39160;48.580;7.756;2023-08-31T01:31:27;18.50;99.90
53272;DHT22;39160;48.580;7.756;2023-08-31T01:36:23;18.70;99.90
53272;DHT22;39160;48.580;7.756;2023-08-31T01:41:17;18.70;99.90
53272;DHT22;39160;48.580;7.756;2023-08-31T01:46:09;18.60;99.90
53272;DHT22;39160;48.580;7.756;2023-08-31T01:51:00;18.50;99.90
53272;DHT22;39160;48.580;7.756;2023-08-31T01:55:51;18.60;99.90
53272;DHT22;39160;48.580;7.756;2023-08-31T02:00:42;18.60;99.90
53272;DHT22;39160;48.580;7.756;2023-08-31T02:05:33;18.60;99.90
53272;DHT22;39160;48.580;7.756;2023-08-31T02:10:23;18.60;99.90
53272;DHT22;39160;48.580;7.756;2023-08-31T02:15:14;18.60;99.90
53272;DHT22;39160;48.580;7.756;2023-08-31T02:20:05;18.50;99.90
53272;DHT22;39160;48.580;7.756;2023-08-31T02:24:56;18.50;99.90
53272;DHT22;39160;48.580;7.756;2023-08-31T02:29:47;18.40;99.90
53272;DHT22;39160;48.580;7.756;2023-08-31T02:34:38;18.40;99.90
53272;DHT22;39160;48.580;7.756;2023-08-31T02:39:28;18.40;99.90
53272;DHT22;39160;48.580;7.756;2023-08-31T02:44:19;18.30;99.90
53272;DHT22;39160;48.580;7.756;2023-08-31T02:49:09;18.30;99.90
53272;DHT22;39160;48.580;7.756;2023-08-31T02:54:00;18.40;99.90
53272;DHT22;39160;48.580;7.756;2023-08-31T02:58:51;18.40;99.90
53272;DHT22;39160;48.580;7.756;2023-08-31T03:03:42;18.40;99.90
53272;DHT22;39160;48.580;7.756;2023-08-31T03:08:33;18.40;99.90
53272;DHT22;39160;48.580;7.756;2023-08-31T03:13:24;18.30;99.90
53272;DHT22;39160;48.580;7.756;2023-08-31T03:18:15;18.30;99.90
53272;DHT22;39160;48.580;7.756;2023-08-31T03:23:05;18.30;99.90
53272;DHT22;39160;48.580;7.756;2023-08-31T03:27:56;18.20;99.90
53272;DHT22;39160;48.580;7.756;2023-08-31T03:32:48;18.30;99.90
53272;DHT22;39160;48.580;7.756;2023-08-31T03:37:38;18.30;99.90
53272;DHT22;39160;48.580;7.756;2023-08-31T03:42:29;18.30;99.90
53272;DHT22;39160;48.580;7.756;2023-08-31T03:47:20;18.20;99.90
53272;DHT22;39160;48.580;7.756;2023-08-31T03:52:10;18.30;99.90
53272;DHT22;39160;48.580;7.756;2023-08-31T03:57:01;18.30;99.90
53272;DHT22;39160;48.580;7.756;2023-08-31T04:01:51;18.40;99.90
53272;DHT22;39160;48.580;7.756;2023-08-31T04:06:43;18.30;99.90
53272;DHT22;39160;48.580;7.756;2023-08-31T04:11:33;18.30;99.90
53272;DHT22;39160;48.580;7.756;2023-08-31T04:16:24;18.30;99.90
53272;DHT22;39160;48.580;7.756;2023-08-31T04:21:15;18.30;99.90
53272;DHT22;39160;48.580;7.756;2023-08-31T04:26:12;18.30;99.90
53272;DHT22;39160;48.580;7.756;2023-08-31T04:31:05;18.30;99.90
53272;DHT22;39160;48.580;7.756;2023-08-31T04:35:57;18.20;99.90
53272;DHT22;39160;48.580;7.756;2023-08-31T04:40:48;18.10;99.90
53272;DHT22;39160;48.580;7.756;2023-08-31T04:45:38;18.00;99.90
53272;DHT22;39160;48.580;7.756;2023-08-31T04:50:29;18.00;99.90
53272;DHT22;39160;48.580;7.756;2023-08-31T04:55:21;18.00;99.90
53272;DHT22;39160;48.580;7.756;2023-08-31T05:00:13;18.10;99.90
53272;DHT22;39160;48.580;7.756;2023-08-31T05:05:04;18.00;99.90
53272;DHT22;39160;48.580;7.756;2023-08-31T05:09:55;18.00;99.90
53272;DHT22;39160;48.580;7.756;2023-08-31T05:14:46;18.00;99.90
53272;DHT22;39160;48.580;7.756;2023-08-31T05:19:37;18.10;99.90
53272;DHT22;39160;48.580;7.756;2023-08-31T05:24:27;18.00;99.90
53272;DHT22;39160;48.580;7.756;2023-08-31T05:29:18;18.10;99.90
53272;DHT22;39160;48.580;7.756;2023-08-31T05:34:16;17.90;99.90
53272;DHT22;39160;48.580;7.756;2023-08-31T05:39:06;17.90;99.90
53272;DHT22;39160;48.580;7.756;2023-08-31T05:43:58;17.90;99.90
53272;DHT22;39160;48.580;7.756;2023-08-31T05:48:49;17.90;99.90
53272;DHT22;39160;48.580;7.756;2023-08-31T05:53:39;17.90;99.90
53272;DHT22;39160;48.580;7.756;2023-08-31T05:58:34;17.70;99.90
53272;DHT22;39160;48.580;7.756;2023-08-31T06:03:24;17.80;99.90
53272;DHT22;39160;48.580;7.756;2023-08-31T06:08:15;17.80;99.90
53272;DHT22;39160;48.580;7.756;2023-08-31T06:13:06;17.80;99.90
53272;DHT22;39160;48.580;7.756;2023-08-31T06:17:56;17.90;99.90
53272;DHT22;39160;48.580;7.756;2023-08-31T06:22:48;17.80;99.90
53272;DHT22;39160;48.580;7.756;2023-08-31T06:27:40;17.90;99.90
53272;DHT22;39160;48.580;7.756;2023-08-31T06:32:30;18.00;99.90
53272;DHT22;39160;48.580;7.756;2023-08-31T06:37:21;18.10;99.90
53272;DHT22;39160;48.580;7.756;2023-08-31T06:42:12;18.10;99.90
53272;DHT22;39160;48.580;7.756;2023-08-31T06:47:03;17.90;99.90
53272;DHT22;39160;48.580;7.756;2023-08-31T06:51:53;17.70;99.90
53272;DHT22;39160;48.580;7.756;2023-08-31T06:56:44;17.80;99.90
53272;DHT22;39160;48.580;7.756;2023-08-31T07:01:35;17.70;99.90
53272;DHT22;39160;48.580;7.756;2023-08-31T07:06:26;17.80;99.90
53272;DHT22;39160;48.580;7.756;2023-08-31T07:11:17;17.90;99.90
53272;DHT22;39160;48.580;7.756;2023-08-31T07:16:08;17.80;99.90
53272;DHT22;39160;48.580;7.756;2023-08-31T07:20:59;18.00;99.90
53272;DHT22;39160;48.580;7.756;2023-08-31T07:25:50;17.90;99.90
53272;DHT22;39160;48.580;7.756;2023-08-31T07:30:40;18.00;99.90
53272;DHT22;39160;48.580;7.756;2023-08-31T07:35:31;18.00;99.90
53272;DHT22;39160;48.580;7.756;2023-08-31T07:40:22;18.10;99.90
53272;DHT22;39160;48.580;7.756;2023-08-31T07:45:13;18.10;99.90
53272;DHT22;39160;48.580;7.756;2023-08-31T07:50:04;18.30;99.90
53272;DHT22;39160;48.580;7.756;2023-08-31T07:54:55;18.30;99.90
53272;DHT22;39160;48.580;7.756;2023-08-31T07:59:45;18.30;99.90
53272;DHT22;39160;48.580;7.756;2023-08-31T08:04:36;18.40;99.90
53272;DHT22;39160;48.580;7.756;2023-08-31T08:09:29;18.50;99.90
53272;DHT22;39160;48.580;7.756;2023-08-31T08:14:20;18.70;99.90
53272;DHT22;39160;48.580;7.756;2023-08-31T08:19:10;18.70;99.90
53272;DHT22;39160;48.580;7.756;2023-08-31T08:24:01;18.70;99.90
53272;DHT22;39160;48.580;7.756;2023-08-31T08:28:52;18.70;99.90
53272;DHT22;39160;48.580;7.756;2023-08-31T08:33:42;18.70;99.90
53272;DHT22;39160;48.580;7.756;2023-08-31T08:38:33;18.80;99.90
53272;DHT22;39160;48.580;7.756;2023-08-31T08:43:25;18.80;99.90
53272;DHT22;39160;48.580;7.756;2023-08-31T08:48:17;18.70;99.90
53272;DHT22;39160;48.580;7.756;2023-08-31T08:53:09;18.80;99.90
53272;DHT22;39160;48.580;7.756;2023-08-31T08:58:01;18.90;99.90
53272;DHT22;39160;48.580;7.756;2023-08-31T09:02:53;18.90;99.90
53272;DHT22;39160;48.580;7.756;2023-08-31T09:08:03;19.00;99.90
53272;DHT22;39160;48.580;7.756;2023-08-31T09:12:54;19.00;99.90
53272;DHT22;39160;48.580;7.756;2023-08-31T09:17:46;18.90;99.90
53272;DHT22;39160;48.580;7.756;2023-08-31T09:22:42;19.00;99.90
53272;DHT22;39160;48.580;7.756;2023-08-31T09:27:38;19.10;99.90
53272;DHT22;39160;48.580;7.756;2023-08-31T09:32:29;19.10;99.90
53272;DHT22;39160;48.580;7.756;2023-08-31T09:37:19;19.10;99.90
53272;DHT22;39160;48.580;7.756;2023-08-31T09:42:10;19.20;99.90
53272;DHT22;39160;48.580;7.756;2023-08-31T09:47:01;19.20;99.90
53272;DHT22;39160;48.580;7.756;2023-08-31T09:51:53;19.30;99.90
53272;DHT22;39160;48.580;7.756;2023-08-31T09:56:46;19.30;99.90
53272;DHT22;39160;48.580;7.756;2023-08-31T10:01:37;19.40;99.90
53272;DHT22;39160;48.580;7.756;2023-08-31T10:06:28;19.50;99.90
53272;DHT22;39160;48.580;7.756;2023-08-31T10:11:25;19.50;99.90
53272;DHT22;39160;48.580;7.756;2023-08-31T10:16:16;19.60;99.90
53272;DHT22;39160;48.580;7.756;2023-08-31T10:21:09;19.70;99.90
53272;DHT22;39160;48.580;7.756;2023-08-31T10:26:01;19.60;99.90
53272;DHT22;39160;48.580;7.756;2023-08-31T10:31:04;19.50;99.90
53272;DHT22;39160;48.580;7.756;2023-08-31T10:35:56;19.50;99.90
53272;DHT22;39160;48.580;7.756;2023-08-31T10:46:00;19.60;99.90
53272;DHT22;39160;48.580;7.756;2023-08-31T10:50:51;19.60;99.90
53272;DHT22;39160;48.580;7.756;2023-08-31T10:55:52;19.60;99.90
53272;DHT22;39160;48.580;7.756;2023-08-31T11:00:56;19.60;99.90
53272;DHT22;39160;48.580;7.756;2023-08-31T11:05:52;19.60;99.90
53272;DHT22;39160;48.580;7.756;2023-08-31T11:10:46;19.80;99.90
53272;DHT22;39160;48.580;7.756;2023-08-31T11:15:36;19.80;99.90
53272;DHT22;39160;48.580;7.756;2023-08-31T11:20:27;20.00;99.90
53272;DHT22;39160;48.580;7.756;2023-08-31T11:25:22;20.20;99.90
53272;DHT22;39160;48.580;7.756;2023-08-31T11:30:17;20.20;99.90
53272;DHT22;39160;48.580;7.756;2023-08-31T11:35:08;20.30;99.90
53272;DHT22;39160;48.580;7.756;2023-08-31T11:39:59;20.40;99.90
53272;DHT22;39160;48.580;7.756;2023-08-31T11:44:52;20.40;99.90
53272;DHT22;39160;48.580;7.756;2023-08-31T11:49:44;20.30;99.90
53272;DHT22;39160;48.580;7.756;2023-08-31T11:54:39;20.40;99.90
53272;DHT22;39160;48.580;7.756;2023-08-31T11:59:34;20.40;99.90
53272;DHT22;39160;48.580;7.756;2023-08-31T12:04:25;20.40;99.90
53272;DHT22;39160;48.580;7.756;2023-08-31T12:09:16;20.50;99.90
53272;DHT22;39160;48.580;7.756;2023-08-31T12:14:24;20.70;99.90
53272;DHT22;39160;48.580;7.756;2023-08-31T12:19:15;21.00;99.90
53272;DHT22;39160;48.580;7.756;2023-08-31T12:24:07;21.10;99.90
53272;DHT22;39160;48.580;7.756;2023-08-31T12:28:58;21.10;99.90
53272;DHT22;39160;48.580;7.756;2023-08-31T12:33:51;21.10;99.90
53272;DHT22;39160;48.580;7.756;2023-08-31T12:38:42;21.00;99.90
53272;DHT22;39160;48.580;7.756;2023-08-31T12:43:33;21.00;99.90
53272;DHT22;39160;48.580;7.756;2023-08-31T12:48:26;21.00;99.90
53272;DHT22;39160;48.580;7.756;2023-08-31T12:53:17;21.00;99.90
53272;DHT22;39160;48.580;7.756;2023-08-31T12:58:11;21.00;99.90
53272;DHT22;39160;48.580;7.756;2023-08-31T13:03:04;21.20;99.90
53272;DHT22;39160;48.580;7.756;2023-08-31T13:07:57;21.20;99.90
53272;DHT22;39160;48.580;7.756;2023-08-31T13:12:48;21.10;99.90
53272;DHT22;39160;48.580;7.756;2023-08-31T13:17:39;21.00;99.90
53272;DHT22;39160;48.580;7.756;2023-08-31T13:22:30;21.00;99.90
53272;DHT22;39160;48.580;7.756;2023-08-31T13:27:21;20.80;99.90
53272;DHT22;39160;48.580;7.756;2023-08-31T13:32:12;20.80;99.90
53272;DHT22;39160;48.580;7.756;2023-08-31T13:37:03;20.80;99.90
53272;DHT22;39160;48.580;7.756;2023-08-31T13:41:54;20.80;99.90
53272;DHT22;39160;48.580;7.756;2023-08-31T13:46:45;20.80;99.90
53272;DHT22;39160;48.580;7.756;2023-08-31T13:51:35;20.80;99.90
53272;DHT22;39160;48.580;7.756;2023-08-31T13:56:26;21.00;99.90
53272;DHT22;39160;48.580;7.756;2023-08-31T14:01:17;20.90;99.90
53272;DHT22;39160;48.580;7.756;2023-08-31T14:06:08;21.00;99.90
53272;DHT22;39160;48.580;7.756;2023-08-31T14:10:58;21.10;99.90
53272;DHT22;39160;48.580;7.756;2023-08-31T14:15:49;21.20;99.90
53272;DHT22;39160;48.580;7.756;2023-08-31T14:20:40;21.10;99.90
53272;DHT22;39160;48.580;7.756;2023-08-31T14:25:37;21.20;99.90
53272;DHT22;39160;48.580;7.756;2023-08-31T14:30:28;21.20;99.90
53272;DHT22;39160;48.580;7.756;2023-08-31T14:35:19;21.30;99.90
53272;DHT22;39160;48.580;7.756;2023-08-31T14:40:10;21.20;99.90
53272;DHT22;39160;48.580;7.756;2023-08-31T14:45:02;21.20;99.90
53272;DHT22;39160;48.580;7.756;2023-08-31T14:49:55;21.20;99.90
53272;DHT22;39160;48.580;7.756;2023-08-31T14:54:45;21.10;99.90
53272;DHT22;39160;48.580;7.756;2023-08-31T14:59:36;21.00;99.90
53272;DHT22;39160;48.580;7.756;2023-08-31T15:04:28;21.10;99.90
53272;DHT22;39160;48.580;7.756;2023-08-31T15:09:18;21.10;99.90
53272;DHT22;39160;48.580;7.756;2023-08-31T15:14:09;21.00;99.90
53272;DHT22;39160;48.580;7.756;2023-08-31T15:19:00;21.10;99.90
53272;DHT22;39160;48.580;7.756;2023-08-31T15:23:51;21.20;99.90
53272;DHT22;39160;48.580;7.756;2023-08-31T15:28:42;21.10;99.90
53272;DHT22;39160;48.580;7.756;2023-08-31T15:33:32;21.20;99.90
53272;DHT22;39160;48.580;7.756;2023-08-31T15:38:23;21.10;99.90
53272;DHT22;39160;48.580;7.756;2023-08-31T15:43:14;21.10;99.90
53272;DHT22;39160;48.580;7.756;2023-08-31T15:48:06;21.10;99.90
53272;DHT22;39160;48.580;7.756;2023-08-31T15:52:57;21.20;99.90
53272;DHT22;39160;48.580;7.756;2023-08-31T15:57:47;21.10;99.90
53272;DHT22;39160;48.580;7.756;2023-08-31T16:02:38;21.10;99.90
53272;DHT22;39160;48.580;7.756;2023-08-31T16:07:29;21.20;99.90
53272;DHT22;39160;48.580;7.756;2023-08-31T16:12:20;21.20;99.90
53272;DHT22;39160;48.580;7.756;2023-08-31T16:17:10;21.20;99.90
53272;DHT22;39160;48.580;7.756;2023-08-31T16:22:01;21.20;99.90
53272;DHT22;39160;48.580;7.756;2023-08-31T16:26:52;21.30;99.90
53272;DHT22;39160;48.580;7.756;2023-08-31T16:31:43;21.20;99.90
53272;DHT22;39160;48.580;7.756;2023-08-31T16:36:35;21.20;99.90
53272;DHT22;39160;48.580;7.756;2023-08-31T16:41:25;21.10;99.90
53272;DHT22;39160;48.580;7.756;2023-08-31T16:46:16;21.00;99.90
53272;DHT22;39160;48.580;7.756;2023-08-31T16:51:07;21.10;99.90
53272;DHT22;39160;48.580;7.756;2023-08-31T16:55:58;21.10;99.90
53272;DHT22;39160;48.580;7.756;2023-08-31T17:00:49;21.10;99.90
53272;DHT22;39160;48.580;7.756;2023-08-31T17:05:40;21.00;99.90
53272;DHT22;39160;48.580;7.756;2023-08-31T17:10:31;20.90;99.90
53272;DHT22;39160;48.580;7.756;2023-08-31T17:15:22;20.90;99.90
53272;DHT22;39160;48.580;7.756;2023-08-31T17:20:13;21.00;99.90
53272;DHT22;39160;48.580;7.756;2023-08-31T17:25:12;21.00;99.90
53272;DHT22;39160;48.580;7.756;2023-08-31T17:30:04;21.00;99.90
53272;DHT22;39160;48.580;7.756;2023-08-31T17:34:57;20.90;99.90
53272;DHT22;39160;48.580;7.756;2023-08-31T17:39:48;20.90;99.90
53272;DHT22;39160;48.580;7.756;2023-08-31T17:44:39;20.90;99.90
53272;DHT22;39160;48.580;7.756;2023-08-31T17:49:30;20.90;99.90
53272;DHT22;39160;48.580;7.756;2023-08-31T17:54:20;20.90;99.90
53272;DHT22;39160;48.580;7.756;2023-08-31T17:59:11;20.90;99.90
53272;DHT22;39160;48.580;7.756;2023-08-31T18:04:06;20.80;99.90
53272;DHT22;39160;48.580;7.756;2023-08-31T18:08:57;20.80;99.90
53272;DHT22;39160;48.580;7.756;2023-08-31T18:13:47;20.90;99.90
53272;DHT22;39160;48.580;7.756;2023-08-31T18:18:38;20.80;99.90
53272;DHT22;39160;48.580;7.756;2023-08-31T18:23:29;20.90;99.90
53272;DHT22;39160;48.580;7.756;2023-08-31T18:28:19;20.80;99.90
53272;DHT22;39160;48.580;7.756;2023-08-31T18:33:10;20.80;99.90
53272;DHT22;39160;48.580;7.756;2023-08-31T18:38:01;20.80;99.90
53272;DHT22;39160;48.580;7.756;2023-08-31T18:42:52;20.80;99.90
53272;DHT22;39160;48.580;7.756;2023-08-31T18:47:42;20.70;99.90
53272;DHT22;39160;48.580;7.756;2023-08-31T18:52:33;20.80;99.90
53272;DHT22;39160;48.580;7.756;2023-08-31T18:57:24;20.80;99.90
53272;DHT22;39160;48.580;7.756;2023-08-31T19:02:15;20.80;99.90
53272;DHT22;39160;48.580;7.756;2023-08-31T19:07:05;20.70;99.90
53272;DHT22;39160;48.580;7.756;2023-08-31T19:11:56;20.70;99.90
53272;DHT22;39160;48.580;7.756;2023-08-31T19:16:47;20.60;99.90
53272;DHT22;39160;48.580;7.756;2023-08-31T19:21:37;20.60;99.90
53272;DHT22;39160;48.580;7.756;2023-08-31T19:26:28;20.50;99.90
53272;DHT22;39160;48.580;7.756;2023-08-31T19:31:19;20.40;99.90
53272;DHT22;39160;48.580;7.756;2023-08-31T19:36:11;20.50;99.90
53272;DHT22;39160;48.580;7.756;2023-08-31T19:41:02;20.40;99.90
53272;DHT22;39160;48.580;7.756;2023-08-31T19:45:52;20.40;99.90
53272;DHT22;39160;48.580;7.756;2023-08-31T19:50:43;20.40;99.90
53272;DHT22;39160;48.580;7.756;2023-08-31T19:55:35;20.40;99.90
53272;DHT22;39160;48.580;7.756;2023-08-31T20:00:26;20.40;99.90
53272;DHT22;39160;48.580;7.756;2023-08-31T20:05:17;20.40;99.90
53272;DHT22;39160;48.580;7.756;2023-08-31T20:10:09;20.30;99.90
53272;DHT22;39160;48.580;7.756;2023-08-31T20:15:00;20.30;99.90
53272;DHT22;39160;48.580;7.756;2023-08-31T20:19:51;20.20;99.90
53272;DHT22;39160;48.580;7.756;2023-08-31T20:24:41;20.10;99.90
53272;DHT22;39160;48.580;7.756;2023-08-31T20:29:33;20.10;99.90
53272;DHT22;39160;48.580;7.756;2023-08-31T20:34:23;20.20;99.90
53272;DHT22;39160;48.580;7.756;2023-08-31T20:39:14;20.10;99.90
53272;DHT22;39160;48.580;7.756;2023-08-31T20:44:05;20.10;99.90
53272;DHT22;39160;48.580;7.756;2023-08-31T20:48:56;20.20;99.90
53272;DHT22;39160;48.580;7.756;2023-08-31T20:53:47;20.10;99.90
53272;DHT22;39160;48.580;7.756;2023-08-31T20:58:39;20.10;99.90
53272;DHT22;39160;48.580;7.756;2023-08-31T21:03:30;20.10;99.90
53272;DHT22;39160;48.580;7.756;2023-08-31T21:08:21;20.00;99.90
53272;DHT22;39160;48.580;7.756;2023-08-31T21:13:16;20.00;99.90
53272;DHT22;39160;48.580;7.756;2023-08-31T21:18:07;19.90;99.90
53272;DHT22;39160;48.580;7.756;2023-08-31T21:23:23;19.90;99.90
53272;DHT22;39160;48.580;7.756;2023-08-31T21:28:14;19.90;99.90
53272;DHT22;39160;48.580;7.756;2023-08-31T21:33:08;19.90;99.90
53272;DHT22;39160;48.580;7.756;2023-08-31T21:37:58;19.90;99.90
53272;DHT22;39160;48.580;7.756;2023-08-31T21:42:49;19.90;99.90
53272;DHT22;39160;48.580;7.756;2023-08-31T21:47:39;19.80;99.90
53272;DHT22;39160;48.580;7.756;2023-08-31T21:52:30;19.80;99.90
53272;DHT22;39160;48.580;7.756;2023-08-31T21:57:21;19.70;99.90
53272;DHT22;39160;48.580;7.756;2023-08-31T22:02:12;19.80;99.90
53272;DHT22;39160;48.580;7.756;2023-08-31T22:07:04;19.70;99.90
53272;DHT22;39160;48.580;7.756;2023-08-31T22:11:55;19.70;99.90
53272;DHT22;39160;48.580;7.756;2023-08-31T22:16:46;19.60;99.90
53272;DHT22;39160;48.580;7.756;2023-08-31T22:21:37;19.70;99.90
53272;DHT22;39160;48.580;7.756;2023-08-31T22:26:28;19.70;99.90
53272;DHT22;39160;48.580;7.756;2023-08-31T22:31:19;19.70;99.90
53272;DHT22;39160;48.580;7.756;2023-08-31T22:36:10;19.90;99.90
53272;DHT22;39160;48.580;7.756;2023-08-31T22:41:05;19.90;99.90
53272;DHT22;39160;48.580;7.756;2023-08-31T22:45:56;19.80;99.90
53272;DHT22;39160;48.580;7.756;2023-08-31T22:50:47;19.90;99.90
53272;DHT22;39160;48.580;7.756;2023-08-31T22:55:38;19.90;99.90
53272;DHT22;39160;48.580;7.756;2023-08-31T23:00:29;20.00;99.90
53272;DHT22;39160;48.580;7.756;2023-08-31T23:05:19;19.90;99.90
53272;DHT22;39160;48.580;7.756;2023-08-31T23:10:10;19.90;99.90
53272;DHT22;39160;48.580;7.756;2023-08-31T23:15:01;19.90;99.90
53272;DHT22;39160;48.580;7.756;2023-08-31T23:19:51;19.90;99.90
53272;DHT22;39160;48.580;7.756;2023-08-31T23:24:42;19.90;99.90
53272;DHT22;39160;48.580;7.756;2023-08-31T23:29:33;19.90;99.90
53272;DHT22;39160;48.580;7.756;2023-08-31T23:34:23;19.80;99.90
53272;DHT22;39160;48.580;7.756;2023-08-31T23:39:14;19.80;99.90
53272;DHT22;39160;48.580;7.756;2023-08-31T23:44:05;19.90;99.90
53272;DHT22;39160;48.580;7.756;2023-08-31T23:48:56;19.90;99.90
53272;DHT22;39160;48.580;7.756;2023-08-31T23:53:47;20.00;99.90
53272;DHT22;39160;48.580;7.756;2023-08-31T23:58:38;19.90;99.90
